Flight Track Log - Related Links

Times and Time Zones

All times are in EST time to prevent confusion due to time zone crossing. See the N244A flight status page for this flight to view local times or setup timezone preferences in your user account.

Time Position Orientation Groundspeed Altitude Reporting Facility
EST Latitude Longitude Course Direction KTS MPH feet Rate Location/Type
Tue 05:38:20 PM 35.3844 -82.4389 64° Northeast 270 311 8,600  Level Atlanta Center
Tue 05:39:21 PM 35.4208 -82.3464 64° Northeast 305 351 10,700 2,380 Climbing Atlanta Center
Tue 05:40:21 PM 35.4778 -82.2511 54° Northeast 336 387 13,400 2,500 Climbing Atlanta Center
Tue 05:41:21 PM 35.5283 -82.1403 61° Northeast 362 417 15,700 2,150 Climbing Atlanta Center
Tue 05:42:21 PM 35.5639 -82.0142 71° East 377 434 17,700 1,450 Climbing Atlanta Center
Tue 05:43:21 PM 35.5911 -81.8936 74° East 393 452 18,600 1,250 Climbing Atlanta Center
Tue 05:44:21 PM 35.6514 -81.7667 60° Northeast 413 475 20,200 1,650 Climbing Atlanta Center
Tue 05:45:21 PM 35.7178 -81.6422 57° Northeast 431 496 21,900 1,550 Climbing Atlanta Center
Tue 05:46:21 PM 35.7881 -81.5069 57° Northeast 448 516 23,300 1,350 Climbing Atlanta Center
Tue 05:47:21 PM 35.8600 -81.3586 59° Northeast 459 528 24,600 1,100 Climbing Atlanta Center
Tue 05:48:21 PM 35.9300 -81.2206 58° Northeast 464 534 25,500 1,000 Climbing Atlanta Center
Tue 05:49:21 PM 35.9975 -81.0819 59° Northeast 464 534 26,600 1,300 Climbing Atlanta Center
Tue 05:50:21 PM 36.0672 -80.9433 58° Northeast 471 542 28,100 1,500 Climbing Atlanta Center
Tue 05:51:21 PM 36.1364 -80.7994 59° Northeast 477 549 29,600 1,450 Climbing Atlanta Center
Tue 05:52:21 PM 36.1978 -80.6733 59° Northeast 477 549 31,000 1,300 Climbing Atlanta Center
Tue 05:53:21 PM 36.2647 -80.5289 60° Northeast 477 549 32,200 921 Climbing Atlanta Center
Tue 05:55:43 PM 36.4308 -80.1847 59° Northeast 498 573 34,100 802 Climbing Washington Center
Tue 05:56:43 PM 36.5103 -80.0189 59° Northeast 498 573 34,900 661 Climbing Washington Center
Tue 05:57:41 PM 36.5847 -79.8678 58° Northeast 498 573 35,400 508 Climbing Washington Center
Tue 05:58:41 PM 36.6650 -79.7194 56° Northeast 504 580 35,900 500 Climbing Washington Center
Tue 05:59:41 PM 36.7511 -79.5764 53° Northeast 509 586 36,400 347 Climbing Washington Center
Tue 06:00:42 PM 36.8306 -79.4481 52° Northeast 514 592 36,600 298 Climbing Washington Center
Tue 06:01:42 PM 36.9167 -79.2992 54° Northeast 514 592 37,000 202 Climbing Washington Center
Tue 06:02:41 PM 37.0025 -79.1522 54° Northeast 514 592 37,000  Level Washington Center
Tue 06:03:42 PM 37.0992 -78.9850 54° Northeast 524 603 37,000  Level Washington Center
Tue 06:04:42 PM 37.1886 -78.8378 53° Northeast 524 603 37,000  Level Washington Center
Tue 06:05:42 PM 37.2742 -78.6822 55° Northeast 530 610 37,000  Level Washington Center
Tue 06:06:43 PM 37.3547 -78.5469 53° Northeast 530 610 37,000  Level Washington Center
Tue 06:07:43 PM 37.4439 -78.3986 53° Northeast 530 610 37,000  Level Washington Center
Tue 06:08:41 PM 37.5308 -78.2419 55° Northeast 530 610 37,000  Level Washington Center
Tue 06:09:41 PM 37.6133 -78.0928 55° Northeast 524 603 37,000  Level Washington Center
Tue 06:10:41 PM 37.6997 -77.9383 55° Northeast 530 610 37,000  Level Washington Center
Tue 06:11:42 PM 37.7861 -77.7886 54° Northeast 530 610 37,000  Level Washington Center
Tue 06:12:42 PM 37.8722 -77.6358 54° Northeast 530 610 37,000  Level Washington Center
Tue 06:13:43 PM 37.9744 -77.4989 47° Northeast 530 610 37,000  Level Washington Center
Tue 06:14:43 PM 38.0744 -77.3697 45° Northeast 519 597 37,000  Level Washington Center
Tue 06:15:43 PM 38.1703 -77.2344 48° Northeast 513 590 37,000  Level Washington Center
Tue 06:16:41 PM 38.2722 -77.0992 46° Northeast 518 596 37,000  Level Washington Center
Tue 06:17:41 PM 38.3697 -76.9608 48° Northeast 518 596 37,000 -397 Level Washington Center
Tue 06:18:42 PM 38.4692 -76.8247 47° Northeast 518 596 36,200 -893 Descending Washington Center
Tue 06:19:42 PM 38.5728 -76.6831 47° Northeast 518 596 35,200 -893 Descending Washington Center
Tue 06:20:43 PM 38.6697 -76.5436 48° Northeast 518 596 34,400 -1,091 Descending Washington Center
Tue 06:21:43 PM 38.7708 -76.4064 47° Northeast 518 596 33,000 -1,271 Descending Washington Center
Tue 06:22:41 PM 38.8719 -76.2661 47° Northeast 518 596 31,900 -1,210 Descending Washington Center
Tue 06:23:42 PM 38.9767 -76.1178 48° Northeast 528 608 30,600 -1,230 Descending Washington Center
Tue 06:24:43 PM 39.0817 -75.9714 47° Northeast 546 628 29,400 -793 Descending Washington Center
Tue 06:25:43 PM 39.1842 -75.8219 48° Northeast 546 628 29,000 -203 Descending Washington Center
Tue 06:26:41 PM 39.2633 -75.6558 58° Northeast 546 628 29,000 -51 Level Washington Center
Tue 06:27:41 PM 39.3406 -75.4869 59° Northeast 546 628 28,900 -744 Descending Washington Center
Tue 06:28:42 PM 39.4153 -75.3256 59° Northeast 532 612 27,500 -1,774 Descending Washington Center
Tue 06:30:20 PM 39.6203 -75.1828 28° Northeast 462 532 24,200 -1,709 Descending New York Center
Tue 06:31:20 PM 39.7189 -75.0567 45° Northeast 475 547 23,000 -600 Descending New York Center
Tue 06:32:20 PM 39.8092 -74.9217 49° Northeast 480 552 23,000  Level New York Center
Tue 06:33:20 PM 39.8886 -74.7939 51° Northeast 486 559 23,000  Level New York Center
Tue 06:34:20 PM 39.9181 -74.6033 79° East 499 574 23,000  Level New York Center
Tue 06:35:20 PM 39.9486 -74.4236 77° East 505 581 23,000  Level New York Center
Tue 06:36:20 PM 39.9814 -74.2383 77° East 510 587 23,000 -200 Level New York Center
Tue 06:37:20 PM 40.0281 -74.0644 71° East 510 587 22,600 -2,050 Descending New York Center
Tue 06:38:20 PM 40.1158 -73.9058 54° Northeast 489 563 18,900 -1,988 Descending New York Center
Tue 06:40:09 PM 40.2414 -73.6839 53° Northeast 444 511 17,000 -671 Descending Boston Center
Tue 06:41:10 PM 40.3342 -73.5131 54° Northeast 476 548 17,000  Level Boston Center
Tue 06:42:14 PM 40.4408 -73.4322 30° Northeast 450 518 17,000 -145 Level Boston Center
Tue 06:43:14 PM 40.5617 -73.3889 15° North 446 513 16,700 -950 Descending Boston Center
Tue 06:44:14 PM 40.6833 -73.3500 14° North 394 453 15,100 -800 Descending New York TRACON
Tue 06:45:14 PM 40.7667 -73.3167 17° North 338 389 15,100 -450 Level New York TRACON
Tue 06:46:14 PM 40.8333 -73.2167 49° Northeast 346 398 14,200 -900 Descending New York TRACON
Tue 06:47:14 PM 40.8833 -73.1167 56° Northeast 372 428 13,300 -1,300 Descending New York TRACON
Tue 06:48:14 PM 40.9500 -73.0500 37° Northeast 297 342 11,600 -1,632 Descending New York TRACON
Tue 06:49:08 PM 41.0167 -73.0833 339° North 277 319 10,200 -1,750 Descending New York TRACON
Tue 06:50:14 PM 41.1000 -73.1167 343° North 280 322 8,100 -1,700 Descending New York TRACON
Tue 06:51:08 PM 41.1333 -73.1833 304° West 268 308 6,800 -1,684 Descending New York TRACON
Tue 06:52:08 PM 41.1500 -73.2833 283° West 264 304 4,900 -1,400 Descending New York TRACON
Tue 06:53:08 PM 41.1667 -73.3667 285° West 252 290 4,000 -524 Descending New York TRACON
Tue 06:54:14 PM 41.1833 -73.4833 281° West 252 290 3,800 -750 Descending New York TRACON
Tue 06:55:08 PM 41.1833 -73.5500 270° West 267 307 2,500 -947 Descending New York TRACON
Tue 06:56:08 PM 41.2000 -73.6500 283° West 253 291 2,000 -250 Descending New York TRACON
Tue 06:57:08 PM 41.2000 -73.7333 270° West 236 272 2,000 50 Level New York TRACON
Tue 06:58:08 PM 41.1833 -73.8167 255° West 222 255 2,100 50 Climbing New York TRACON
Tue 06:59:08 PM 41.1333 -73.7667 143° Southeast 189 217 2,100 -450 Level New York TRACON
Tue 07:00:08 PM 41.1000 -73.7333 143° Southeast 138 159 1,200 -750 Descending New York TRACON
Tue 07:01:08 PM 41.0833 -73.7167 143° Southeast 117 135 600 -600 Descending New York TRACON
Tue 07:03:00 PM 41.0667 -73.7000 138° Southeast  Level FlightAware Approximate
Tue 07:10:00 PM 41.0669 -73.7076 138° Southeast  Level Estimated

Login

Don't have an account? Register now (free) for customized features, flight alerts, and more!